Time;durP1;ratioP1;P1;durP2;ratioP2;P2;SDS_P1;SDS_P2;PMS_P1;PMS_P2;Temp;Humidity;BMP_temperature;BMP_pressure;BME280_temperature;BME280_humidity;BME280_pressure;Samples;Min_cycle;Max_cycle;Signal;HPM_P1;HPM_P2
2022/10/26 00:01:14;;;;;;;14.80;9.55;;;11.20;99.90;;;;;;5011810;28;20038;-68
2022/10/26 00:03:41;;;;;;;18.50;9.68;;;11.10;99.90;;;;;;5011525;28;20073;-69
2022/10/26 00:06:13;;;;;;;14.57;9.65;;;11.10;99.90;;;;;;5011586;28;20100;-69
2022/10/26 00:08:39;;;;;;;14.82;10.38;;;11.10;99.90;;;;;;5013071;28;20030;-68
2022/10/26 00:11:06;;;;;;;13.65;10.00;;;11.00;99.90;;;;;;5012904;28;20048;-69
2022/10/26 00:13:32;;;;;;;19.38;10.95;;;11.10;99.90;;;;;;5012387;28;20500;-68
2022/10/26 00:15:58;;;;;;;19.67;11.18;;;11.10;99.90;;;;;;5011505;28;20056;-69
2022/10/26 00:18:23;;;;;;;17.65;10.65;;;10.80;99.90;;;;;;5011548;28;20041;-69
2022/10/26 00:20:49;;;;;;;19.05;11.52;;;11.00;99.90;;;;;;5011393;28;20399;-69
2022/10/26 00:23:15;;;;;;;26.50;11.35;;;11.00;99.90;;;;;;5012346;28;20049;-69
2022/10/26 00:25:41;;;;;;;18.98;11.75;;;11.00;99.90;;;;;;5011570;28;20046;-69
2022/10/26 00:28:06;;;;;;;21.75;11.77;;;10.90;99.90;;;;;;5011164;28;20045;-69
2022/10/26 00:30:32;;;;;;;22.65;12.50;;;10.90;99.90;;;;;;5012665;28;20466;-69
2022/10/26 00:32:57;;;;;;;21.08;13.52;;;10.90;99.90;;;;;;5010997;28;20423;-69
2022/10/26 00:35:23;;;;;;;24.98;12.60;;;11.00;99.90;;;;;;5012544;28;20057;-69
2022/10/26 00:37:53;;;;;;;20.73;12.07;;;11.00;99.90;;;;;;5011134;28;20057;-69
2022/10/26 00:40:19;;;;;;;19.70;12.60;;;10.90;99.90;;;;;;5012461;28;20096;-69
2022/10/26 00:42:44;;;;;;;23.92;12.35;;;10.80;99.90;;;;;;5011912;28;20050;-69
2022/10/26 00:45:23;;;;;;;19.65;13.30;;;10.90;99.90;;;;;;5012218;28;20115;-69
2022/10/26 00:48:04;;;;;;;24.77;12.52;;;10.70;99.90;;;;;;5012147;28;20046;-69
2022/10/26 00:50:37;;;;;;;20.23;13.10;;;10.70;99.90;;;;;;5011043;28;20042;-69
2022/10/26 00:53:05;;;;;;;19.48;12.40;;;10.90;99.90;;;;;;5010800;28;20041;-69
2022/10/26 00:55:39;;;;;;;22.77;12.50;;;10.80;99.90;;;;;;5012114;28;20507;-69
2022/10/26 00:58:07;;;;;;;24.05;13.43;;;10.70;99.90;;;;;;5012210;28;20053;-68
2022/10/26 01:00:33;;;;;;;20.55;12.30;;;10.70;99.90;;;;;;5012164;28;20070;-69
2022/10/26 01:03:01;;;;;;;22.10;12.90;;;10.80;99.90;;;;;;5011721;28;20045;-68
2022/10/26 01:05:28;;;;;;;21.15;13.05;;;10.70;99.90;;;;;;5012041;28;20037;-69
2022/10/26 01:07:54;;;;;;;20.20;12.63;;;10.50;99.90;;;;;;5010567;28;20133;-69
2022/10/26 01:10:20;;;;;;;23.60;13.10;;;10.50;99.90;;;;;;5011860;28;20224;-69
2022/10/26 01:12:46;;;;;;;21.58;13.10;;;10.60;99.90;;;;;;5011531;28;20046;-69
2022/10/26 01:15:12;;;;;;;23.38;14.25;;;10.70;99.90;;;;;;5011822;28;20038;-69
2022/10/26 01:18:00;;;;;;;19.38;13.70;;;10.70;99.90;;;;;;5011860;28;20056;-69
2022/10/26 01:20:59;;;;;;;17.70;13.02;;;10.70;99.90;;;;;;5011796;28;20057;-69
2022/10/26 01:23:42;;;;;;;24.67;15.23;;;10.60;99.90;;;;;;5011448;28;20045;-69
2022/10/26 01:26:45;;;;;;;19.27;13.40;;;10.50;99.90;;;;;;5011681;28;20034;-69
2022/10/26 01:29:37;;;;;;;24.45;13.18;;;10.60;99.90;;;;;;5011866;28;20120;-69
2022/10/26 01:32:13;;;;;;;21.13;12.85;;;10.60;99.90;;;;;;5011679;28;20052;-69
2022/10/26 01:34:44;;;;;;;20.73;12.45;;;10.50;99.90;;;;;;5010209;28;20092;-69
2022/10/26 01:37:19;;;;;;;21.40;12.85;;;10.40;99.90;;;;;;5011580;28;20045;-69
2022/10/26 01:40:07;;;;;;;25.50;14.15;;;10.50;99.90;;;;;;5010726;28;20094;-69
2022/10/26 01:42:35;;;;;;;23.40;13.70;;;10.50;99.90;;;;;;5010619;28;20147;-69
2022/10/26 01:45:05;;;;;;;27.85;16.20;;;10.50;99.90;;;;;;5011581;28;20038;-69
2022/10/26 01:47:33;;;;;;;21.50;14.35;;;10.30;99.90;;;;;;5010136;28;20520;-69
2022/10/26 01:50:01;;;;;;;24.27;13.63;;;10.40;99.90;;;;;;5011648;28;20402;-69
2022/10/26 01:52:27;;;;;;;19.88;13.20;;;10.30;99.90;;;;;;5011330;28;20046;-68
2022/10/26 01:55:00;;;;;;;23.33;13.45;;;10.40;99.90;;;;;;5010480;28;20037;-69
2022/10/26 01:57:26;;;;;;;23.10;14.00;;;10.30;99.90;;;;;;5010223;28;20074;-69
2022/10/26 02:00:09;;;;;;;21.65;13.32;;;10.30;99.90;;;;;;5011291;28;20100;-69
2022/10/26 02:03:11;;;;;;;21.25;14.45;;;10.20;99.90;;;;;;5011231;28;20034;-69
2022/10/26 02:06:05;;;;;;;22.65;14.30;;;10.40;99.90;;;;;;5011480;28;20049;-69
2022/10/26 02:08:56;;;;;;;22.23;13.02;;;10.20;99.90;;;;;;5011602;28;20132;-69
2022/10/26 02:11:29;;;;;;;20.05;13.80;;;10.30;99.90;;;;;;5010355;28;20041;-69
2022/10/26 02:14:05;;;;;;;20.90;13.55;;;10.20;99.90;;;;;;5010147;28;20502;-69
2022/10/26 02:16:37;;;;;;;20.20;13.38;;;10.20;99.90;;;;;;5014953;28;20069;-69
2022/10/26 02:19:16;;;;;;;25.05;14.80;;;10.30;99.90;;;;;;5013901;28;20045;-69
2022/10/26 02:21:47;;;;;;;19.67;13.48;;;10.20;99.90;;;;;;5015010;28;20042;-69
2022/10/26 02:24:16;;;;;;;21.65;13.95;;;10.30;99.90;;;;;;5014403;28;20141;-69
2022/10/26 02:26:45;;;;;;;20.08;14.07;;;10.10;99.90;;;;;;5014765;28;20121;-69
2022/10/26 02:29:15;;;;;;;26.48;14.90;;;10.10;99.90;;;;;;5014648;28;20050;-69
2022/10/26 02:31:42;;;;;;;20.52;12.75;;;10.30;99.90;;;;;;5014942;28;20061;-69
2022/10/26 02:34:12;;;;;;;20.05;14.65;;;10.30;99.90;;;;;;5014341;28;20045;-69
2022/10/26 02:36:42;;;;;;;23.60;14.27;;;10.20;99.90;;;;;;5014805;28;20038;-69
2022/10/26 02:39:10;;;;;;;20.63;13.43;;;10.20;99.90;;;;;;5014719;28;20041;-69
2022/10/26 02:41:38;;;;;;;25.92;14.50;;;10.30;99.90;;;;;;5014425;28;20096;-69
2022/10/26 02:44:22;;;;;;;20.27;12.95;;;10.30;99.90;;;;;;5014293;28;20045;-69
2022/10/26 02:46:48;;;;;;;22.10;14.13;;;10.20;99.90;;;;;;5013143;28;20046;-69
2022/10/26 02:49:14;;;;;;;22.00;13.65;;;10.10;99.90;;;;;;5014498;28;20049;-69
2022/10/26 02:51:45;;;;;;;24.42;14.23;;;10.20;99.90;;;;;;5014292;28;20042;-69
2022/10/26 02:54:36;;;;;;;18.92;13.57;;;10.20;99.90;;;;;;5013883;28;20042;-69
2022/10/26 02:57:28;;;;;;;22.70;13.85;;;10.10;99.90;;;;;;5014381;28;20049;-68
2022/10/26 02:59:55;;;;;;;21.00;12.82;;;10.10;99.90;;;;;;5014284;28;20046;-69
2022/10/26 03:02:21;;;;;;;20.40;12.70;;;10.00;99.90;;;;;;5012832;28;20045;-69
2022/10/26 03:04:49;;;;;;;22.13;14.63;;;9.90;99.90;;;;;;5013101;28;20599;-69
2022/10/26 03:07:24;;;;;;;22.40;13.68;;;9.90;99.90;;;;;;5014178;28;20523;-69
2022/10/26 03:09:50;;;;;;;24.35;13.15;;;10.00;99.90;;;;;;5014030;28;20090;-69
2022/10/26 03:12:16;;;;;;;23.63;14.32;;;9.80;99.90;;;;;;5013755;28;20487;-69
2022/10/26 03:14:41;;;;;;;21.55;13.70;;;10.00;99.90;;;;;;5012674;28;20070;-69
2022/10/26 03:17:07;;;;;;;21.15;14.32;;;9.80;99.90;;;;;;5014100;28;20129;-69
2022/10/26 03:19:32;;;;;;;19.85;13.75;;;9.80;99.90;;;;;;5014020;28;20092;-69
2022/10/26 03:21:58;;;;;;;21.92;14.68;;;9.90;99.90;;;;;;5009057;28;20049;-69
2022/10/26 03:24:24;;;;;;;25.77;15.23;;;10.00;99.90;;;;;;5004648;28;20134;-69
2022/10/26 03:26:49;;;;;;;26.48;15.85;;;9.80;99.90;;;;;;5008406;28;20072;-69
2022/10/26 03:29:15;;;;;;;21.08;14.55;;;10.00;99.90;;;;;;5012250;28;20054;-69
2022/10/26 03:31:40;;;;;;;27.00;16.20;;;9.90;99.90;;;;;;5012238;28;20049;-68
2022/10/26 03:34:06;;;;;;;22.58;14.75;;;9.80;99.90;;;;;;5013429;28;20033;-69
2022/10/26 03:36:31;;;;;;;21.92;16.02;;;9.90;99.90;;;;;;5013681;28;20042;-69
2022/10/26 03:38:57;;;;;;;23.42;14.45;;;10.00;99.90;;;;;;5013590;28;20045;-69
2022/10/26 03:41:23;;;;;;;25.15;15.98;;;9.90;99.90;;;;;;5013369;28;20068;-69
2022/10/26 03:43:48;;;;;;;25.92;16.77;;;9.80;99.90;;;;;;5005241;28;20046;-69
2022/10/26 03:46:14;;;;;;;22.08;14.93;;;9.90;99.90;;;;;;5013099;28;20522;-69
2022/10/26 03:48:39;;;;;;;24.00;15.00;;;10.00;99.90;;;;;;5013547;28;20033;-69
2022/10/26 03:51:05;;;;;;;28.33;15.38;;;9.90;99.90;;;;;;5011909;28;20085;-69
2022/10/26 03:53:32;;;;;;;24.67;16.15;;;9.80;99.90;;;;;;5012961;28;20049;-69
2022/10/26 03:55:57;;;;;;;27.20;15.68;;;9.80;99.90;;;;;;5013135;28;20500;-69
2022/10/26 03:58:23;;;;;;;27.13;16.60;;;9.70;99.90;;;;;;5011807;28;20038;-68
2022/10/26 04:00:48;;;;;;;19.30;14.13;;;9.70;99.90;;;;;;5012932;28;20038;-68
2022/10/26 04:03:14;;;;;;;25.77;16.13;;;9.70;99.90;;;;;;5003494;28;20475;-69
2022/10/26 04:05:39;;;;;;;24.17;16.33;;;9.80;99.90;;;;;;5012874;28;20107;-69
2022/10/26 04:08:05;;;;;;;28.30;15.05;;;9.70;99.90;;;;;;5012955;28;20520;-69
2022/10/26 04:10:31;;;;;;;26.58;15.77;;;9.70;99.90;;;;;;5011744;28;20538;-69
2022/10/26 04:12:59;;;;;;;24.00;16.40;;;9.80;99.90;;;;;;5012482;28;20065;-69
2022/10/26 04:15:24;;;;;;;26.92;15.85;;;9.70;99.90;;;;;;5011677;28;20042;-69
2022/10/26 04:18:00;;;;;;;25.55;16.33;;;9.70;99.90;;;;;;5012949;28;20048;-69
2022/10/26 04:20:27;;;;;;;26.55;14.70;;;9.80;99.90;;;;;;5011684;28;20038;-69
2022/10/26 04:23:01;;;;;;;33.63;16.75;;;9.60;99.90;;;;;;5012110;28;20470;-69
2022/10/26 04:25:28;;;;;;;25.75;17.50;;;9.70;99.90;;;;;;5011291;28;20100;-69
2022/10/26 04:27:54;;;;;;;27.17;17.13;;;9.70;99.90;;;;;;5012315;28;20408;-69
2022/10/26 04:30:19;;;;;;;25.92;16.73;;;9.80;99.90;;;;;;5011214;28;20041;-69
2022/10/26 04:32:45;;;;;;;28.90;16.98;;;9.70;99.90;;;;;;5012265;28;20029;-69
2022/10/26 04:35:10;;;;;;;28.98;17.45;;;9.70;99.90;;;;;;5012559;28;20091;-68
2022/10/26 04:37:36;;;;;;;24.10;16.42;;;9.70;99.90;;;;;;5012195;28;20504;-68
2022/10/26 04:40:02;;;;;;;24.90;17.05;;;9.70;99.90;;;;;;5012236;28;20053;-68
2022/10/26 04:42:30;;;;;;;25.08;15.48;;;9.90;99.90;;;;;;5010867;28;20075;-69
2022/10/26 04:44:55;;;;;;;23.38;15.93;;;9.70;99.90;;;;;;5012353;28;20045;-68
2022/10/26 04:47:21;;;;;;;21.58;16.05;;;9.70;99.90;;;;;;5011100;28;20377;-68
2022/10/26 04:49:46;;;;;;;27.30;16.17;;;9.80;99.90;;;;;;5012397;28;20048;-69
2022/10/26 04:52:12;;;;;;;30.02;17.30;;;9.80;99.90;;;;;;5012271;28;20054;-68
2022/10/26 04:54:37;;;;;;;26.58;18.27;;;9.70;99.90;;;;;;5011962;28;20124;-68
2022/10/26 04:57:03;;;;;;;29.90;18.10;;;9.80;99.90;;;;;;5012029;28;20042;-68
2022/10/26 04:59:28;;;;;;;25.90;16.08;;;9.70;99.90;;;;;;5012309;28;20068;-68
2022/10/26 05:01:54;;;;;;;24.00;16.17;;;9.90;99.90;;;;;;5010887;28;20049;-68
2022/10/26 05:04:19;;;;;;;28.55;16.70;;;9.90;99.90;;;;;;5011900;28;20092;-68
2022/10/26 05:06:45;;;;;;;29.05;18.90;;;9.80;99.90;;;;;;5010691;28;20046;-68
2022/10/26 05:09:10;;;;;;;29.27;18.35;;;9.90;99.90;;;;;;5010638;28;20046;-68
2022/10/26 05:11:36;;;;;;;31.55;17.95;;;9.90;99.90;;;;;;5011937;28;20352;-69
2022/10/26 05:14:01;;;;;;;31.58;17.08;;;9.80;99.90;;;;;;5003560;28;20038;-69
2022/10/26 05:16:27;;;;;;;32.45;18.42;;;10.00;99.90;;;;;;5011918;28;20042;-68
2022/10/26 05:18:52;;;;;;;32.42;19.02;;;10.00;99.90;;;;;;5011738;28;20045;-68
2022/10/26 05:21:18;;;;;;;27.98;17.48;;;9.90;99.90;;;;;;5011846;28;20041;-68
2022/10/26 05:23:54;;;;;;;33.60;18.25;;;10.00;99.90;;;;;;5011367;28;20041;-68
2022/10/26 05:26:21;;;;;;;45.53;18.30;;;10.10;99.90;;;;;;5027214;28;20476;-68
2022/10/26 05:28:47;;;;;;;25.95;16.88;;;10.10;99.90;;;;;;5011873;28;20070;-68
2022/10/26 05:31:12;;;;;;;28.27;18.33;;;10.10;99.90;;;;;;5011710;28;20120;-69
2022/10/26 05:33:38;;;;;;;26.38;17.42;;;9.90;99.90;;;;;;5011438;28;20084;-68
2022/10/26 05:36:04;;;;;;;28.55;18.27;;;9.90;99.90;;;;;;5011750;28;20038;-69
2022/10/26 05:38:30;;;;;;;27.75;16.77;;;10.20;99.90;;;;;;5011513;28;20460;-69
2022/10/26 05:40:55;;;;;;;26.70;16.83;;;10.10;99.90;;;;;;5010275;28;20041;-68
2022/10/26 05:43:23;;;;;;;35.15;18.27;;;10.20;99.90;;;;;;5009941;28;20053;-68
2022/10/26 05:45:52;;;;;;;28.40;18.13;;;10.20;99.90;;;;;;5011598;28;20056;-69
2022/10/26 05:48:21;;;;;;;27.30;16.85;;;10.10;99.90;;;;;;5010162;28;20084;-68
2022/10/26 05:50:47;;;;;;;31.05;19.02;;;10.10;99.90;;;;;;5013779;28;20037;-68
2022/10/26 05:53:12;;;;;;;26.83;18.08;;;10.00;99.90;;;;;;5013994;28;20115;-68
2022/10/26 05:55:38;;;;;;;28.85;17.75;;;10.00;99.90;;;;;;5015424;28;20041;-68
2022/10/26 05:58:12;;;;;;;29.55;18.75;;;10.10;99.90;;;;;;5015620;28;20049;-68
2022/10/26 06:01:06;;;;;;;30.58;17.30;;;10.10;99.90;;;;;;5014079;28;20042;-68
2022/10/26 06:04:01;;;;;;;26.90;16.85;;;10.20;99.90;;;;;;5014820;28;20049;-68
2022/10/26 06:06:33;;;;;;;26.05;16.35;;;10.20;99.90;;;;;;5014283;28;20046;-68
2022/10/26 06:08:58;;;;;;;26.17;16.33;;;10.20;99.90;;;;;;5015210;28;20499;-69
2022/10/26 06:11:24;;;;;;;28.63;17.38;;;10.10;99.90;;;;;;5014181;28;20038;-68
2022/10/26 06:13:50;;;;;;;27.92;17.40;;;10.30;99.90;;;;;;5014766;28;20041;-68
2022/10/26 06:16:45;;;;;;;28.73;17.50;;;10.10;99.90;;;;;;5015493;28;20044;-68
2022/10/26 06:19:37;;;;;;;25.95;16.45;;;10.20;99.90;;;;;;4992963;28;20089;-68
2022/10/26 06:22:13;;;;;;;28.60;15.73;;;10.30;99.90;;;;;;5014026;28;20044;-68
2022/10/26 06:24:53;;;;;;;30.00;17.48;;;10.30;99.90;;;;;;5014722;28;20059;-68
2022/10/26 06:27:45;;;;;;;30.17;17.92;;;10.20;99.90;;;;;;5014681;28;20581;-68
2022/10/26 06:30:11;;;;;;;29.77;16.42;;;10.30;99.90;;;;;;5014961;28;20107;-68
2022/10/26 06:32:39;;;;;;;26.77;16.55;;;10.30;99.90;;;;;;5014340;28;20049;-68
2022/10/26 06:35:13;;;;;;;31.10;17.88;;;10.40;99.90;;;;;;5013328;28;20038;-68
2022/10/26 06:37:44;;;;;;;31.05;16.13;;;10.50;99.90;;;;;;5013330;28;20096;-68
2022/10/26 06:40:12;;;;;;;31.17;17.10;;;10.50;99.90;;;;;;5013345;28;20046;-68
2022/10/26 06:42:38;;;;;;;29.65;19.10;;;10.60;99.90;;;;;;5013201;28;20050;-68
2022/10/26 06:45:04;;;;;;;31.60;16.90;;;10.60;99.90;;;;;;5014394;28;20044;-75
2022/10/26 06:47:42;;;;;;;29.77;17.83;;;10.40;99.90;;;;;;5013181;28;20044;-75
2022/10/26 06:50:27;;;;;;;37.08;19.02;;;10.50;99.90;;;;;;5013381;28;20037;-74
2022/10/26 06:53:08;;;;;;;29.10;16.95;;;10.50;99.90;;;;;;5013075;28;20042;-74
2022/10/26 06:55:44;;;;;;;26.23;16.80;;;10.60;99.90;;;;;;5013247;28;20053;-73
2022/10/26 06:58:15;;;;;;;21.77;16.00;;;10.40;99.90;;;;;;5013478;28;20073;-73
2022/10/26 07:00:42;;;;;;;25.58;16.17;;;10.50;99.90;;;;;;5012971;28;20045;-73
2022/10/26 07:03:08;;;;;;;27.23;15.27;;;10.70;99.90;;;;;;5014141;28;20041;-74
2022/10/26 07:05:33;;;;;;;26.92;15.48;;;10.60;99.90;;;;;;5013378;28;20099;-73
2022/10/26 07:07:59;;;;;;;27.63;14.95;;;10.80;99.90;;;;;;5012808;28;20054;-70
2022/10/26 07:10:25;;;;;;;21.45;13.77;;;10.80;99.90;;;;;;5012715;28;20133;-71
2022/10/26 07:12:50;;;;;;;28.02;15.98;;;10.70;99.90;;;;;;5013569;28;20450;-72
2022/10/26 07:15:16;;;;;;;23.30;14.38;;;10.90;99.90;;;;;;5012785;28;20152;-70
2022/10/26 07:17:46;;;;;;;25.60;15.90;;;10.80;99.90;;;;;;5012691;28;20041;-74
2022/10/26 07:20:12;;;;;;;28.48;19.50;;;10.70;99.90;;;;;;4996462;28;20034;-74
2022/10/26 07:22:38;;;;;;;27.83;17.33;;;11.00;99.90;;;;;;5015630;28;20042;-75
2022/10/26 07:25:05;;;;;;;27.23;14.77;;;10.80;99.90;;;;;;5013669;28;20053;-75
2022/10/26 07:27:31;;;;;;;26.48;13.80;;;11.00;99.90;;;;;;4996168;28;20062;-74
2022/10/26 07:29:56;;;;;;;22.65;15.55;;;11.10;99.90;;;;;;5013934;28;20108;-77
2022/10/26 07:32:22;;;;;;;21.35;13.98;;;11.20;99.90;;;;;;5011889;28;20092;-75
2022/10/26 07:34:48;;;;;;;18.95;13.40;;;11.20;99.90;;;;;;5014272;28;20113;-78
2022/10/26 07:37:13;;;;;;;23.20;12.35;;;11.10;99.90;;;;;;5019647;28;20065;-79
2022/10/26 07:39:38;;;;;;;24.70;14.30;;;11.20;99.90;;;;;;4998926;28;20153;-81
2022/10/26 07:42:04;;;;;;;24.55;13.65;;;11.30;99.90;;;;;;5014271;28;20052;-79
2022/10/26 07:44:30;;;;;;;21.48;13.65;;;11.30;99.90;;;;;;5014891;28;20046;-80
2022/10/26 07:46:56;;;;;;;18.00;12.48;;;11.30;99.90;;;;;;5013931;28;20041;-79
2022/10/26 07:49:21;;;;;;;23.02;13.48;;;11.20;99.90;;;;;;5014252;28;20030;-78
2022/10/26 07:51:47;;;;;;;22.08;14.05;;;11.50;99.90;;;;;;5014957;28;20073;-78
2022/10/26 07:54:12;;;;;;;23.52;12.93;;;11.30;99.90;;;;;;5013995;28;20053;-78
2022/10/26 07:56:38;;;;;;;20.60;13.50;;;11.40;99.90;;;;;;5021269;28;20046;-78
2022/10/26 07:59:03;;;;;;;21.05;13.15;;;11.60;99.90;;;;;;5024904;28;20045;-77
2022/10/26 08:01:29;;;;;;;19.70;12.48;;;11.50;99.90;;;;;;5025308;28;20468;-77
2022/10/26 08:03:55;;;;;;;16.33;11.80;;;11.60;99.90;;;;;;5016980;28;20041;-78
2022/10/26 08:06:21;;;;;;;20.90;12.18;;;11.60;99.90;;;;;;5016816;28;20050;-78
2022/10/26 08:08:48;;;;;;;18.20;11.45;;;11.70;99.90;;;;;;5014895;28;20041;-78
2022/10/26 08:11:15;;;;;;;22.05;11.77;;;11.70;99.90;;;;;;4999760;28;20049;-78
2022/10/26 08:13:40;;;;;;;16.77;11.88;;;11.90;99.90;;;;;;5015098;28;20049;-78
2022/10/26 08:16:06;;;;;;;16.05;10.55;;;12.20;99.90;;;;;;5016961;28;20042;-78
2022/10/26 08:18:32;;;;;;;16.02;10.13;;;12.20;99.90;;;;;;5000432;28;20041;-78
2022/10/26 08:21:06;;;;;;;15.60;9.25;;;12.40;99.90;;;;;;5016361;28;20124;-78
2022/10/26 08:23:32;;;;;;;17.83;9.35;;;12.40;99.90;;;;;;5027184;28;20097;-78
2022/10/26 08:26:02;;;;;;;17.63;9.93;;;12.50;99.90;;;;;;5022501;28;20080;-81
2022/10/26 08:28:28;;;;;;;14.73;9.00;;;12.60;99.90;;;;;;5006077;28;20053;-81
2022/10/26 08:30:54;;;;;;;16.33;8.88;;;12.60;99.90;;;;;;5020323;28;20399;-78
2022/10/26 08:33:21;;;;;;;10.95;8.60;;;12.80;99.90;;;;;;5022594;28;20037;-80
2022/10/26 08:35:46;;;;;;;14.35;8.02;;;13.00;99.90;;;;;;5015195;28;20037;-78
2022/10/26 08:38:12;;;;;;;12.23;7.97;;;13.10;99.90;;;;;;5015489;28;20467;-79
2022/10/26 08:40:40;;;;;;;23.23;9.40;;;13.30;99.90;;;;;;5015133;28;20120;-77
2022/10/26 08:43:44;;;;;;;13.50;7.25;;;13.50;99.90;;;;;;5011113;28;20096;-77
2022/10/26 08:46:18;;;;;;;9.85;7.22;;;13.40;99.90;;;;;;5011482;28;20046;-75
2022/10/26 08:48:53;;;;;;;17.02;8.57;;;13.70;99.90;;;;;;5011090;28;20050;-77
2022/10/26 08:51:29;;;;;;;15.02;6.88;;;13.90;99.90;;;;;;5011413;28;20038;-78
2022/10/26 08:54:09;;;;;;;10.18;7.10;;;14.00;99.90;;;;;;5010830;28;20403;-76
2022/10/26 08:56:40;;;;;;;15.38;7.57;;;14.00;99.90;;;;;;5010961;28;20554;-77
2022/10/26 08:59:38;;;;;;;38.67;13.98;;;14.30;99.90;;;;;;5011385;28;20049;-77
2022/10/26 09:02:12;;;;;;;13.95;7.22;;;14.50;99.90;;;;;;5014923;28;20041;-80
2022/10/26 09:04:37;;;;;;;14.75;7.35;;;14.30;99.90;;;;;;5016446;28;20678;-80
2022/10/26 09:07:47;;;;;;;21.10;10.40;;;14.40;99.90;;;;;;5015069;28;20053;-80
2022/10/26 09:10:38;;;;;;;8.32;5.65;;;14.60;99.90;;;;;;4975078;28;20385;-80
2022/10/26 09:13:18;;;;;;;8.82;6.18;;;14.60;99.90;;;;;;5018325;28;20455;-80
2022/10/26 09:16:05;;;;;;;10.15;6.43;;;14.70;99.90;;;;;;5016570;28;20077;-80
2022/10/26 09:18:52;;;;;;;14.45;6.30;;;14.70;99.90;;;;;;5015584;28;20135;-79
2022/10/26 09:21:31;;;;;;;25.95;14.55;;;14.70;99.90;;;;;;5014618;28;20648;-81
2022/10/26 09:24:24;;;;;;;14.32;8.27;;;14.60;99.90;;;;;;5018332;28;20073;-83
2022/10/26 09:26:53;;;;;;;39.55;19.45;;;14.80;99.90;;;;;;5020089;28;20249;-79
2022/10/26 09:29:25;;;;;;;13.05;6.38;;;14.60;99.90;;;;;;5005121;28;20088;-77
2022/10/26 09:31:54;;;;;;;10.88;6.60;;;14.60;99.90;;;;;;5011999;28;20037;-76
2022/10/26 09:34:28;;;;;;;11.95;5.97;;;14.70;99.90;;;;;;5010317;28;20049;-77
2022/10/26 09:36:55;;;;;;;11.52;6.10;;;14.70;99.90;;;;;;5012126;28;20045;-77
2022/10/26 09:39:27;;;;;;;8.32;6.38;;;14.60;99.90;;;;;;5010568;28;20057;-78
2022/10/26 09:42:00;;;;;;;7.22;5.43;;;14.70;99.90;;;;;;5010971;28;20042;-78
2022/10/26 09:44:29;;;;;;;11.73;5.65;;;14.60;99.90;;;;;;5012773;28;20101;-76
2022/10/26 09:47:27;;;;;;;12.98;5.78;;;14.80;99.90;;;;;;5011955;28;20052;-78
2022/10/26 09:49:58;;;;;;;8.20;6.20;;;14.80;99.90;;;;;;5010577;28;20488;-77
2022/10/26 09:52:23;;;;;;;11.30;5.80;;;14.70;99.90;;;;;;5011624;28;20048;-77
2022/10/26 09:54:49;;;;;;;46.15;12.18;;;14.60;99.90;;;;;;5015493;28;20116;-80
2022/10/26 09:57:17;;;;;;;9.95;7.65;;;14.90;99.90;;;;;;5010653;28;20038;-77
2022/10/26 09:59:46;;;;;;;42.78;9.00;;;14.90;99.90;;;;;;5010230;28;20069;-76
2022/10/26 10:02:31;;;;;;;42.05;8.55;;;15.00;99.90;;;;;;5011567;28;20459;-77
2022/10/26 10:04:57;;;;;;;18.38;6.82;;;15.00;99.90;;;;;;5010930;28;20404;-79
2022/10/26 10:07:22;;;;;;;13.95;6.22;;;15.00;99.90;;;;;;4994067;28;20041;-76
2022/10/26 10:10:14;;;;;;;60.47;10.20;;;15.00;99.90;;;;;;5010259;28;20034;-78
2022/10/26 10:12:39;;;;;;;11.77;7.32;;;15.20;99.90;;;;;;5010086;28;20577;-78
2022/10/26 10:15:17;;;;;;;13.43;7.72;;;15.20;99.90;;;;;;5010282;28;20061;-77
2022/10/26 10:17:47;;;;;;;7.18;4.90;;;15.30;99.90;;;;;;5010636;28;20053;-79
2022/10/26 10:20:21;;;;;;;7.90;5.35;;;15.40;99.90;;;;;;5011164;28;20056;-78
2022/10/26 10:22:58;;;;;;;9.70;4.47;;;15.60;99.90;;;;;;5012122;28;20048;-79
2022/10/26 10:25:37;;;;;;;5.28;4.38;;;15.40;99.90;;;;;;5012103;28;20100;-79
2022/10/26 10:28:21;;;;;;;5.75;3.85;;;15.50;99.90;;;;;;5012814;28;20038;-79
2022/10/26 10:31:21;;;;;;;11.70;3.92;;;15.40;99.90;;;;;;5012773;28;20045;-79
2022/10/26 10:33:48;;;;;;;9.95;4.50;;;15.60;99.90;;;;;;5011115;28;20088;-80
2022/10/26 10:36:19;;;;;;;10.93;4.10;;;15.50;99.90;;;;;;5012003;28;20088;-79
2022/10/26 10:38:47;;;;;;;9.90;5.10;;;15.60;99.90;;;;;;5013654;28;20096;-78
2022/10/26 10:41:28;;;;;;;9.45;4.57;;;15.70;99.90;;;;;;5012754;28;20046;-78
2022/10/26 10:44:18;;;;;;;8.10;3.85;;;15.80;99.90;;;;;;5012011;28;20042;-78
2022/10/26 10:46:43;;;;;;;3.97;2.65;;;15.90;99.90;;;;;;5012433;28;20069;-78
2022/10/26 10:49:27;;;;;;;8.35;3.47;;;16.00;99.90;;;;;;5013395;28;20492;-78
2022/10/26 10:51:55;;;;;;;5.47;3.08;;;16.00;99.90;;;;;;5013695;28;20038;-78
2022/10/26 10:54:30;;;;;;;12.52;3.72;;;16.20;99.90;;;;;;5012091;28;20415;-78
2022/10/26 10:57:16;;;;;;;13.35;3.90;;;16.20;99.90;;;;;;5013253;28;20120;-78
2022/10/26 11:00:03;;;;;;;5.93;2.88;;;16.20;99.90;;;;;;5011576;28;20511;-78
2022/10/26 11:02:44;;;;;;;5.88;3.35;;;16.30;99.90;;;;;;5011681;28;20038;-78
2022/10/26 11:05:47;;;;;;;6.47;2.65;;;16.50;99.90;;;;;;5012007;28;20052;-78
2022/10/26 11:08:24;;;;;;;10.80;3.10;;;16.40;99.90;;;;;;5011900;28;20407;-75
2022/10/26 11:11:05;;;;;;;4.53;2.97;;;16.60;99.90;;;;;;5012067;28;20056;-75
2022/10/26 11:13:47;;;;;;;5.75;2.60;;;16.60;99.90;;;;;;5011244;28;20042;-74
2022/10/26 11:16:19;;;;;;;4.50;2.72;;;16.70;99.90;;;;;;5011413;28;20044;-75
2022/10/26 11:18:59;;;;;;;5.25;3.28;;;16.80;99.90;;;;;;5011848;28;20373;-75
2022/10/26 11:21:32;;;;;;;10.20;3.42;;;16.80;99.90;;;;;;5011588;28;20030;-75
2022/10/26 11:24:19;;;;;;;7.22;2.95;;;16.90;99.90;;;;;;4977117;28;1012121;-75
2022/10/26 11:26:52;;;;;;;7.93;2.90;;;16.90;99.90;;;;;;5021560;28;20050;-75
2022/10/26 11:29:37;;;;;;;11.68;4.47;;;17.00;99.90;;;;;;5022243;28;20048;-75
2022/10/26 11:32:29;;;;;;;6.43;3.30;;;17.00;99.90;;;;;;5020437;28;20061;-74
2022/10/26 11:35:17;;;;;;;7.53;2.73;;;16.90;99.90;;;;;;5015732;28;20042;-77
2022/10/26 11:37:55;;;;;;;6.38;3.20;;;17.10;99.90;;;;;;5012647;28;20531;-74
2022/10/26 11:40:30;;;;;;;3.95;2.55;;;17.10;99.90;;;;;;5013442;28;20045;-74
2022/10/26 11:43:07;;;;;;;7.93;3.35;;;17.20;99.90;;;;;;5017751;28;20069;-74
2022/10/26 11:45:40;;;;;;;7.35;3.65;;;17.10;99.90;;;;;;5031944;28;20499;-74
2022/10/26 11:48:18;;;;;;;8.25;3.10;;;17.20;99.90;;;;;;5032370;28;20041;-74
2022/10/26 11:50:49;;;;;;;21.58;4.03;;;17.30;99.90;;;;;;5033175;28;20045;-74
2022/10/26 11:53:18;;;;;;;181.15;18.92;;;17.30;99.90;;;;;;5031630;28;20052;-74
2022/10/26 11:55:54;;;;;;;6.90;3.00;;;17.30;99.90;;;;;;5024443;28;20491;-74
2022/10/26 11:58:26;;;;;;;7.05;2.70;;;17.40;99.90;;;;;;5018611;28;20053;-74
2022/10/26 12:01:03;;;;;;;8.93;3.42;;;17.50;99.90;;;;;;5004852;28;20045;-74
2022/10/26 12:03:34;;;;;;;7.43;3.10;;;17.50;99.90;;;;;;5014146;28;20111;-74
2022/10/26 12:05:59;;;;;;;11.85;3.50;;;17.40;99.90;;;;;;5011734;28;20046;-74
2022/10/26 12:08:41;;;;;;;8.32;3.17;;;17.60;99.90;;;;;;5012828;28;20103;-74
2022/10/26 12:11:42;;;;;;;12.38;3.38;;;17.50;99.90;;;;;;5011705;28;20055;-74
2022/10/26 12:14:40;;;;;;;9.90;3.40;;;17.60;99.90;;;;;;5011157;28;20050;-74
2022/10/26 12:17:20;;;;;;;5.78;3.08;;;17.70;99.90;;;;;;5006744;28;20058;-72
2022/10/26 12:19:54;;;;;;;6.20;3.20;;;17.70;99.90;;;;;;5014336;28;20038;-74
2022/10/26 12:22:24;;;;;;;8.27;3.20;;;17.70;99.90;;;;;;5011745;28;20053;-75
2022/10/26 12:25:04;;;;;;;27.98;18.23;;;17.70;99.90;;;;;;5013277;28;20474;-77
2022/10/26 12:27:39;;;;;;;60.17;27.20;;;17.70;99.90;;;;;;5011799;28;20500;-77
2022/10/26 12:30:11;;;;;;;5.82;3.47;;;17.60;99.90;;;;;;5012313;28;20129;-76
2022/10/26 12:32:36;;;;;;;10.27;3.38;;;17.70;99.90;;;;;;5014606;28;20038;-76
2022/10/26 12:35:28;;;;;;;7.20;4.25;;;17.70;99.90;;;;;;5014263;28;20140;-77
2022/10/26 12:37:54;;;;;;;6.82;3.20;;;17.70;99.90;;;;;;4991842;28;20034;-77
2022/10/26 12:40:32;;;;;;;6.05;3.13;;;17.80;99.90;;;;;;4993292;28;20093;-77
2022/10/26 12:43:17;;;;;;;5.43;2.90;;;17.70;99.90;;;;;;4975379;28;20425;-78
2022/10/26 12:46:12;;;;;;;4.18;2.53;;;17.70;99.90;;;;;;4991209;28;20074;-77
2022/10/26 12:48:47;;;;;;;6.97;3.42;;;17.80;99.90;;;;;;4990534;28;20069;-79
2022/10/26 12:51:21;;;;;;;6.10;2.80;;;17.80;99.90;;;;;;4991253;28;20050;-78
2022/10/26 12:54:04;;;;;;;7.53;3.00;;;17.70;99.90;;;;;;4991399;28;20064;-78
2022/10/26 12:56:52;;;;;;;5.90;2.90;;;17.80;99.90;;;;;;4991468;28;20054;-78
2022/10/26 12:59:40;;;;;;;5.85;2.90;;;17.70;99.90;;;;;;4991106;28;20045;-78